Time,TemperatureF,DewpointF,PressureIn,WindDirection,WindDirectionDegrees,WindSpeedMPH,WindSpeedGustMPH,Humidity,HourlyPrecipIn,Conditions,Clouds,dailyrainin,SoftwareType,DateUTC
2013-11-18 00:01:00,56.3,54.6,29.79,SSE,148,1.0,7.0,94,0.96,,,0.02,Wunderground v.1.15,2013-11-18 05:01:00,
2013-11-18 00:02:00,56.2,54.5,29.80,West,278,1.0,7.0,94,0.72,,,0.03,Wunderground v.1.15,2013-11-18 05:02:00,
2013-11-18 00:03:00,56.1,54.4,29.80,West,278,6.0,7.0,94,0.39,,,0.04,Wunderground v.1.15,2013-11-18 05:03:00,
2013-11-18 00:06:00,56.0,54.6,29.80,WSW,245,4.0,7.0,95,0.34,,,0.05,Wunderground v.1.15,2013-11-18 05:06:00,
2013-11-18 00:07:00,55.9,54.5,29.80,West,269,3.0,7.0,95,0.33,,,0.06,Wunderground v.1.15,2013-11-18 05:07:00,
2013-11-18 00:08:00,55.8,54.4,29.80,West,278,4.0,7.0,95,0.33,,,0.06,Wunderground v.1.15,2013-11-18 05:08:00,
2013-11-18 00:13:00,54.5,52.5,29.81,WNW,290,9.0,15.0,93,0.17,,,0.08,Wunderground v.1.15,2013-11-18 05:13:00,
2013-11-18 00:19:00,51.8,49.5,29.81,WNW,301,8.0,16.0,92,0.14,,,0.09,Wunderground v.1.15,2013-11-18 05:19:00,
2013-11-18 00:25:00,49.3,46.8,29.82,NW,314,1.0,9.0,91,0.13,,,0.10,Wunderground v.1.15,2013-11-18 05:25:00,
2013-11-18 00:30:00,48.2,46.3,29.81,NW,311,3.0,6.0,93,0.07,,,0.10,Wunderground v.1.15,2013-11-18 05:30:00,
2013-11-18 00:36:00,47.7,46.3,29.82,WNW,302,2.0,6.0,95,0.07,,,0.11,Wunderground v.1.15,2013-11-18 05:36:00,
2013-11-18 00:41:00,47.6,46.2,29.82,WSW,258,3.0,4.0,95,0.06,,,0.11,Wunderground v.1.15,2013-11-18 05:41:00,
2013-11-18 00:47:00,47.7,46.3,29.81,SW,231,1.0,6.0,95,0.04,,,0.11,Wunderground v.1.15,2013-11-18 05:47:00,
2013-11-18 00:52:00,47.7,46.3,29.81,South,188,2.0,4.0,95,0.00,,,0.11,Wunderground v.1.15,2013-11-18 05:52:00,
2013-11-18 00:58:00,47.6,46.2,29.81,WSW,250,1.0,4.0,95,0.00,,,0.11,Wunderground v.1.15,2013-11-18 05:58:00,
2013-11-18 01:03:00,47.5,46.1,29.81,West,267,1.0,4.0,95,0.00,,,0.11,Wunderground v.1.15,2013-11-18 06:03:00,
2013-11-18 01:09:00,47.4,46.0,29.82,West,272,1.0,4.0,95,0.00,,,0.11,Wunderground v.1.15,2013-11-18 06:09:00,
2013-11-18 01:15:00,47.3,45.9,29.82,NNE,23,1.0,1.0,95,0.00,,,0.11,Wunderground v.1.15,2013-11-18 06:15:00,
2013-11-18 01:20:00,47.3,45.7,29.82,SW,229,4.0,4.0,94,0.00,,,0.11,Wunderground v.1.15,2013-11-18 06:20:00,
2013-11-18 01:26:00,47.6,45.7,29.82,West,274,2.0,4.0,93,0.00,,,0.11,Wunderground v.1.15,2013-11-18 06:26:00,
2013-11-18 01:31:00,47.9,45.4,29.82,WNW,288,1.0,3.0,91,0.00,,,0.11,Wunderground v.1.15,2013-11-18 06:31:00,
2013-11-18 01:37:00,48.1,45.3,29.82,WNW,290,0.0,3.0,90,0.00,,,0.11,Wunderground v.1.15,2013-11-18 06:37:00,
2013-11-18 01:42:00,48.4,44.7,29.82,West,278,5.0,5.0,87,0.00,,,0.11,Wunderground v.1.15,2013-11-18 06:42:00,
2013-11-18 01:47:00,48.8,44.8,29.82,WNW,293,2.0,5.0,86,0.00,,,0.11,Wunderground v.1.15,2013-11-18 06:47:00,
2013-11-18 01:53:00,49.0,44.7,29.82,SW,219,0.0,5.0,85,0.00,,,0.11,Wunderground v.1.15,2013-11-18 06:53:00,
2013-11-18 01:59:00,49.1,44.2,29.82,SW,235,1.0,5.0,83,0.00,,,0.11,Wunderground v.1.15,2013-11-18 06:59:00,
2013-11-18 02:04:00,49.2,44.3,29.82,SW,221,1.0,6.0,83,0.00,,,0.11,Wunderground v.1.15,2013-11-18 07:04:00,
2013-11-18 02:09:00,49.1,44.2,29.82,NW,325,0.0,7.0,83,0.00,,,0.11,Wunderground v.1.15,2013-11-18 07:09:00,
2013-11-18 02:14:00,49.2,43.6,29.82,South,184,3.0,7.0,81,0.00,,,0.11,Wunderground v.1.15,2013-11-18 07:14:00,
2013-11-18 02:19:00,49.3,43.4,29.83,NNW,329,3.0,10.0,80,0.00,,,0.11,Wunderground v.1.15,2013-11-18 07:19:00,
2013-11-18 02:24:00,49.6,43.4,29.83,WNW,284,3.0,10.0,79,0.00,,,0.11,Wunderground v.1.15,2013-11-18 07:24:00,
2013-11-18 02:29:00,49.6,43.0,29.83,NW,304,0.0,10.0,78,0.00,,,0.11,Wunderground v.1.15,2013-11-18 07:29:00,
2013-11-18 02:34:00,49.7,42.8,29.83,West,280,1.0,11.0,77,0.00,,,0.11,Wunderground v.1.15,2013-11-18 07:34:00,
2013-11-18 02:39:00,49.6,42.7,29.83,West,260,3.0,11.0,77,0.00,,,0.11,Wunderground v.1.15,2013-11-18 07:39:00,
2013-11-18 02:44:00,49.5,42.6,29.83,WNW,285,1.0,4.0,77,0.00,,,0.11,Wunderground v.1.15,2013-11-18 07:44:00,
2013-11-18 02:49:00,49.5,42.6,29.83,West,278,2.0,6.0,77,0.00,,,0.11,Wunderground v.1.15,2013-11-18 07:49:00,
2013-11-18 02:54:00,49.5,42.6,29.83,WSW,244,1.0,5.0,77,0.00,,,0.11,Wunderground v.1.15,2013-11-18 07:54:00,
2013-11-18 02:59:00,49.4,42.5,29.84,NW,315,5.0,6.0,77,0.00,,,0.11,Wunderground v.1.15,2013-11-18 07:59:00,
2013-11-18 03:04:00,49.3,42.7,29.84,WSW,252,1.0,4.0,78,0.00,,,0.11,Wunderground v.1.15,2013-11-18 08:04:00,
2013-11-18 03:09:00,49.2,42.3,29.84,SW,226,1.0,5.0,77,0.00,,,0.11,Wunderground v.1.15,2013-11-18 08:09:00,
2013-11-18 03:14:00,49.1,42.5,29.84,SE,127,1.0,3.0,78,0.00,,,0.11,Wunderground v.1.15,2013-11-18 08:14:00,
2013-11-18 03:19:00,49.0,42.4,29.84,NE,44,0.0,5.0,78,0.00,,,0.11,Wunderground v.1.15,2013-11-18 08:19:00,
2013-11-18 03:24:00,48.9,42.3,29.84,WNW,292,1.0,5.0,78,0.00,,,0.11,Wunderground v.1.15,2013-11-18 08:24:00,
2013-11-18 03:29:00,48.9,42.7,29.84,WNW,283,1.0,5.0,79,0.00,,,0.11,Wunderground v.1.15,2013-11-18 08:29:00,
2013-11-18 03:34:00,48.8,42.9,29.84,WNW,291,1.0,4.0,80,0.00,,,0.11,Wunderground v.1.15,2013-11-18 08:34:00,
2013-11-18 03:39:00,48.7,43.1,29.84,SW,235,1.0,4.0,81,0.00,,,0.11,Wunderground v.1.15,2013-11-18 08:39:00,
2013-11-18 03:44:00,48.6,43.7,29.84,SW,222,1.0,2.0,83,0.00,,,0.11,Wunderground v.1.15,2013-11-18 08:44:00,
2013-11-18 03:49:00,48.6,43.7,29.84,West,268,0.0,3.0,83,0.00,,,0.11,Wunderground v.1.15,2013-11-18 08:49:00,
2013-11-18 03:54:00,48.6,43.7,29.84,WNW,290,3.0,6.0,83,0.00,,,0.11,Wunderground v.1.15,2013-11-18 08:54:00,
2013-11-18 03:59:00,48.6,43.7,29.84,NNW,334,1.0,6.0,83,0.00,,,0.11,Wunderground v.1.15,2013-11-18 08:59:00,
2013-11-18 04:04:00,48.6,43.4,29.84,SW,214,3.0,5.0,82,0.00,,,0.11,Wunderground v.1.15,2013-11-18 09:04:00,
2013-11-18 04:09:00,48.6,43.7,29.85,West,278,0.0,5.0,83,0.00,,,0.11,Wunderground v.1.15,2013-11-18 09:09:00,
2013-11-18 04:14:00,48.5,43.6,29.85,WSW,256,2.0,3.0,83,0.00,,,0.11,Wunderground v.1.15,2013-11-18 09:14:00,
2013-11-18 04:19:00,48.3,43.4,29.85,SSW,210,0.0,3.0,83,0.00,,,0.11,Wunderground v.1.15,2013-11-18 09:19:00,
2013-11-18 04:24:00,48.1,43.2,29.85,WSW,253,0.0,5.0,83,0.00,,,0.11,Wunderground v.1.15,2013-11-18 09:24:00,
2013-11-18 04:29:00,47.9,42.7,29.86,SSW,210,2.0,6.0,82,0.00,,,0.11,Wunderground v.1.15,2013-11-18 09:29:00,
2013-11-18 04:34:00,47.9,42.7,29.86,West,269,2.0,3.0,82,0.00,,,0.11,Wunderground v.1.15,2013-11-18 09:34:00,
2013-11-18 04:39:00,47.7,42.2,29.86,West,267,0.0,7.0,81,0.00,,,0.11,Wunderground v.1.15,2013-11-18 09:39:00,
2013-11-18 04:44:00,47.5,42.0,29.86,West,280,0.0,7.0,81,0.00,,,0.11,Wunderground v.1.15,2013-11-18 09:44:00,
2013-11-18 04:49:00,47.3,41.8,29.86,WSW,250,8.0,8.0,81,0.00,,,0.11,Wunderground v.1.15,2013-11-18 09:49:00,
2013-11-18 04:54:00,47.1,41.6,29.86,WSW,250,2.0,2.0,81,0.00,,,0.11,Wunderground v.1.15,2013-11-18 09:54:00,
2013-11-18 04:59:00,46.9,41.4,29.86,WNW,302,0.0,7.0,81,0.00,,,0.11,Wunderground v.1.15,2013-11-18 09:59:00,
2013-11-18 05:04:00,46.7,40.9,29.86,SW,231,3.0,6.0,80,0.00,,,0.11,Wunderground v.1.15,2013-11-18 10:04:00,
2013-11-18 05:09:00,46.6,40.8,29.86,West,281,1.0,9.0,80,0.00,,,0.11,Wunderground v.1.15,2013-11-18 10:09:00,
2013-11-18 05:14:00,46.6,40.4,29.86,WSW,256,1.0,5.0,79,0.00,,,0.11,Wunderground v.1.15,2013-11-18 10:14:00,
2013-11-18 05:19:00,46.5,40.3,29.86,SSE,154,0.0,5.0,79,0.00,,,0.11,Wunderground v.1.15,2013-11-18 10:19:00,
2013-11-18 05:24:00,46.3,40.1,29.86,WSW,248,0.0,5.0,79,0.00,,,0.11,Wunderground v.1.15,2013-11-18 10:24:00,
2013-11-18 05:29:00,46.3,40.1,29.86,WSW,253,2.0,5.0,79,0.00,,,0.11,Wunderground v.1.15,2013-11-18 10:29:00,
2013-11-18 05:34:00,46.1,39.9,29.86,SSW,194,0.0,2.0,79,0.00,,,0.11,Wunderground v.1.15,2013-11-18 10:34:00,
2013-11-18 05:39:00,46.0,39.9,29.86,West,267,2.0,6.0,79,0.00,,,0.11,Wunderground v.1.15,2013-11-18 10:39:00,
2013-11-18 05:44:00,45.7,39.9,29.86,SW,221,1.0,2.0,80,0.00,,,0.11,Wunderground v.1.15,2013-11-18 10:44:00,
2013-11-18 05:50:00,45.6,39.8,29.86,WSW,240,3.0,3.0,80,0.00,,,0.11,Wunderground v.1.15,2013-11-18 10:50:00,
2013-11-18 05:55:00,45.7,40.2,29.86,WSW,248,0.0,5.0,81,0.00,,,0.11,Wunderground v.1.15,2013-11-18 10:55:00,
2013-11-18 06:00:00,45.7,40.2,29.87,WSW,256,0.0,5.0,81,0.00,,,0.11,Wunderground v.1.15,2013-11-18 11:00:00,
2013-11-18 06:05:00,45.6,40.1,29.87,SW,225,2.0,4.0,81,0.00,,,0.11,Wunderground v.1.15,2013-11-18 11:05:00,
2013-11-18 06:10:00,45.5,40.3,29.87,WSW,254,4.0,5.0,82,0.00,,,0.11,Wunderground v.1.15,2013-11-18 11:10:00,
2013-11-18 06:15:00,45.7,40.5,29.87,SW,221,6.0,10.0,82,0.00,,,0.11,Wunderground v.1.15,2013-11-18 11:15:00,
2013-11-18 06:20:00,45.8,40.6,29.86,SW,225,3.0,10.0,82,0.00,,,0.11,Wunderground v.1.15,2013-11-18 11:20:00,
2013-11-18 06:25:00,45.9,40.7,29.86,NW,322,9.0,11.0,82,0.00,,,0.11,Wunderground v.1.15,2013-11-18 11:25:00,
2013-11-18 06:30:00,46.0,40.5,29.86,WSW,239,1.0,11.0,81,0.00,,,0.11,Wunderground v.1.15,2013-11-18 11:30:00,
2013-11-18 06:35:00,46.0,40.2,29.87,West,280,3.0,12.0,80,0.00,,,0.11,Wunderground v.1.15,2013-11-18 11:35:00,
2013-11-18 06:40:00,45.9,39.8,29.87,WSW,250,8.0,12.0,79,0.00,,,0.11,Wunderground v.1.15,2013-11-18 11:40:00,
2013-11-18 06:45:00,45.9,39.4,29.87,WSW,250,2.0,12.0,78,0.00,,,0.11,Wunderground v.1.15,2013-11-18 11:45:00,
2013-11-18 06:50:00,45.8,39.3,29.87,NNW,333,9.0,12.0,78,0.00,,,0.11,Wunderground v.1.15,2013-11-18 11:50:00,
2013-11-18 06:55:00,45.7,38.9,29.87,WSW,243,6.0,11.0,77,0.00,,,0.11,Wunderground v.1.15,2013-11-18 11:55:00,
2013-11-18 07:00:00,45.6,38.8,29.87,West,260,3.0,11.0,77,0.00,,,0.11,Wunderground v.1.15,2013-11-18 12:00:00,
2013-11-18 07:05:00,45.5,38.7,29.87,WSW,238,3.0,7.0,77,0.00,,,0.11,Wunderground v.1.15,2013-11-18 12:05:00,
2013-11-18 07:10:00,45.2,38.7,29.87,NW,315,2.0,7.0,78,0.00,,,0.11,Wunderground v.1.15,2013-11-18 12:10:00,
2013-11-18 07:15:00,45.0,38.9,29.87,West,280,3.0,6.0,79,0.00,,,0.11,Wunderground v.1.15,2013-11-18 12:15:00,
2013-11-18 07:20:00,44.9,39.1,29.87,West,262,1.0,7.0,80,0.00,,,0.11,Wunderground v.1.15,2013-11-18 12:20:00,
2013-11-18 07:25:00,44.6,39.1,29.87,WSW,246,4.0,6.0,81,0.00,,,0.11,Wunderground v.1.15,2013-11-18 12:25:00,
2013-11-18 07:30:00,44.4,38.9,29.87,WSW,250,3.0,8.0,81,0.00,,,0.11,Wunderground v.1.15,2013-11-18 12:30:00,
2013-11-18 07:35:00,44.4,38.9,29.87,West,269,1.0,6.0,81,0.00,,,0.11,Wunderground v.1.15,2013-11-18 12:35:00,
2013-11-18 07:40:00,44.4,38.9,29.87,SW,224,3.0,8.0,81,0.00,,,0.11,Wunderground v.1.15,2013-11-18 12:40:00,
2013-11-18 07:45:00,44.6,38.8,29.87,SW,214,2.0,5.0,80,0.00,,,0.11,Wunderground v.1.15,2013-11-18 12:45:00,
2013-11-18 07:50:00,44.8,39.0,29.87,SW,235,2.0,12.0,80,0.00,,,0.11,Wunderground v.1.15,2013-11-18 12:50:00,
2013-11-18 07:55:00,45.1,39.3,29.87,West,280,4.0,10.0,80,0.00,,,0.11,Wunderground v.1.15,2013-11-18 12:55:00,
2013-11-18 08:00:00,45.3,39.2,29.87,SW,224,4.0,10.0,79,0.00,,,0.11,Wunderground v.1.15,2013-11-18 13:00:00,
2013-11-18 08:05:00,45.5,39.0,29.87,SW,219,3.0,12.0,78,0.00,,,0.11,Wunderground v.1.15,2013-11-18 13:05:00,
2013-11-18 08:10:00,45.7,39.2,29.87,West,259,6.0,12.0,78,0.00,,,0.11,Wunderground v.1.15,2013-11-18 13:10:00,
2013-11-18 08:15:00,45.9,39.1,29.87,WNW,291,6.0,10.0,77,0.00,,,0.11,Wunderground v.1.15,2013-11-18 13:15:00,
2013-11-18 08:20:00,46.0,39.2,29.87,SW,214,8.0,10.0,77,0.00,,,0.11,Wunderground v.1.15,2013-11-18 13:20:00,
2013-11-18 08:25:00,46.2,39.4,29.88,West,260,3.0,11.0,77,0.00,,,0.11,Wunderground v.1.15,2013-11-18 13:25:00,
2013-11-18 08:30:00,46.3,39.5,29.87,SW,229,3.0,11.0,77,0.00,,,0.11,Wunderground v.1.15,2013-11-18 13:30:00,
2013-11-18 08:35:00,46.5,39.3,29.88,WNW,291,3.0,8.0,76,0.00,,,0.11,Wunderground v.1.15,2013-11-18 13:35:00,
2013-11-18 08:40:00,46.5,39.3,29.88,WNW,294,3.0,12.0,76,0.00,,,0.11,Wunderground v.1.15,2013-11-18 13:40:00,
2013-11-18 08:45:00,46.7,39.2,29.88,West,269,4.0,10.0,75,0.00,,,0.11,Wunderground v.1.15,2013-11-18 13:45:00,
2013-11-18 08:50:00,46.8,38.9,29.88,SW,225,5.0,10.0,74,0.00,,,0.11,Wunderground v.1.15,2013-11-18 13:50:00,
2013-11-18 08:55:00,46.8,38.9,29.88,WNW,285,4.0,12.0,74,0.00,,,0.11,Wunderground v.1.15,2013-11-18 13:55:00,
2013-11-18 09:00:00,46.9,38.7,29.88,SW,219,3.0,14.0,73,0.00,,,0.11,Wunderground v.1.15,2013-11-18 14:00:00,
2013-11-18 09:05:00,47.0,38.4,29.88,WSW,250,13.0,13.0,72,0.00,,,0.11,Wunderground v.1.15,2013-11-18 14:05:00,
2013-11-18 09:10:00,47.1,38.9,29.88,West,278,5.0,15.0,73,0.00,,,0.11,Wunderground v.1.15,2013-11-18 14:10:00,
2013-11-18 09:15:00,47.4,39.2,29.88,WSW,239,6.0,10.0,73,0.00,,,0.11,Wunderground v.1.15,2013-11-18 14:15:00,
2013-11-18 09:20:00,47.4,38.5,29.88,NW,322,11.0,11.0,71,0.00,,,0.11,Wunderground v.1.15,2013-11-18 14:20:00,
2013-11-18 09:25:00,47.4,38.8,29.88,SW,230,5.0,11.0,72,0.00,,,0.11,Wunderground v.1.15,2013-11-18 14:25:00,
2013-11-18 09:30:00,47.5,38.6,29.88,SW,233,5.0,13.0,71,0.00,,,0.11,Wunderground v.1.15,2013-11-18 14:30:00,
2013-11-18 09:35:00,47.8,38.8,29.88,South,176,6.0,6.0,71,0.00,,,0.11,Wunderground v.1.15,2013-11-18 14:35:00,
2013-11-18 09:40:00,47.9,38.9,29.89,WNW,286,5.0,10.0,71,0.00,,,0.11,Wunderground v.1.15,2013-11-18 14:40:00,
2013-11-18 09:45:00,47.9,38.9,29.89,WSW,240,9.0,16.0,71,0.00,,,0.11,Wunderground v.1.15,2013-11-18 14:45:00,
2013-11-18 09:50:00,47.9,38.6,29.89,SW,236,6.0,16.0,70,0.00,,,0.11,Wunderground v.1.15,2013-11-18 14:50:00,
2013-11-18 09:55:00,48.1,38.4,29.89,WSW,243,3.0,8.0,69,0.00,,,0.11,Wunderground v.1.15,2013-11-18 14:55:00,
2013-11-18 10:00:00,48.2,38.5,29.89,WSW,240,9.0,11.0,69,0.00,,,0.11,Wunderground v.1.15,2013-11-18 15:00:00,
2013-11-18 10:05:00,48.2,38.9,29.89,SW,226,4.0,13.0,70,0.00,,,0.11,Wunderground v.1.15,2013-11-18 15:05:00,
2013-11-18 10:10:00,48.4,38.3,29.89,NNW,334,4.0,13.0,68,0.00,,,0.11,Wunderground v.1.15,2013-11-18 15:10:00,
2013-11-18 10:15:00,48.5,38.0,29.89,WSW,254,4.0,9.0,67,0.00,,,0.11,Wunderground v.1.15,2013-11-18 15:15:00,
2013-11-18 10:20:00,48.9,38.0,29.89,WSW,244,7.0,9.0,66,0.00,,,0.11,Wunderground v.1.15,2013-11-18 15:20:00,
2013-11-18 10:25:00,49.0,38.1,29.89,West,277,4.0,12.0,66,0.00,,,0.11,Wunderground v.1.15,2013-11-18 15:25:00,
2013-11-18 10:30:00,49.3,37.6,29.89,SSW,211,6.0,6.0,64,0.00,,,0.11,Wunderground v.1.15,2013-11-18 15:30:00,
2013-11-18 10:35:00,49.2,36.3,29.89,NW,311,4.0,14.0,61,0.00,,,0.11,Wunderground v.1.15,2013-11-18 15:35:00,
2013-11-18 10:40:00,49.4,36.9,29.89,WSW,258,2.0,6.0,62,0.00,,,0.11,Wunderground v.1.15,2013-11-18 15:40:00,
2013-11-18 10:45:00,49.5,36.2,29.90,NW,314,3.0,12.0,60,0.00,,,0.11,Wunderground v.1.15,2013-11-18 15:45:00,
2013-11-18 10:50:00,49.7,36.8,29.89,WNW,288,3.0,5.0,61,0.00,,,0.11,Wunderground v.1.15,2013-11-18 15:50:00,
2013-11-18 10:51:00,49.7,35.9,29.89,WSW,248,10.0,12.0,59,0.00,,,0.11,Wunderground v.1.15,2013-11-18 15:51:00,
2013-11-18 10:56:00,49.7,35.1,29.89,SSW,207,12.0,15.0,57,0.00,,,0.11,Wunderground v.1.15,2013-11-18 15:56:00,
2013-11-18 11:01:00,49.6,35.0,29.89,WSW,238,11.0,11.0,57,0.00,,,0.11,Wunderground v.1.15,2013-11-18 16:01:00,
2013-11-18 11:06:00,49.4,34.3,29.90,West,277,4.0,15.0,56,0.00,,,0.11,Wunderground v.1.15,2013-11-18 16:06:00,
2013-11-18 11:11:00,49.8,34.7,29.89,WSW,250,12.0,13.0,56,0.00,,,0.11,Wunderground v.1.15,2013-11-18 16:11:00,
2013-11-18 11:16:00,49.9,34.8,29.89,NW,321,8.0,15.0,56,0.00,,,0.11,Wunderground v.1.15,2013-11-18 16:16:00,
2013-11-18 11:21:00,49.9,32.0,29.89,West,277,9.0,19.0,50,0.00,,,0.11,Wunderground v.1.15,2013-11-18 16:21:00,
2013-11-18 11:26:00,49.7,32.3,29.89,West,263,6.0,19.0,51,0.00,,,0.11,Wunderground v.1.15,2013-11-18 16:26:00,
2013-11-18 11:31:00,50.0,31.6,29.89,NW,318,12.0,16.0,49,0.00,,,0.11,Wunderground v.1.15,2013-11-18 16:31:00,
2013-11-18 11:36:00,49.9,31.5,29.89,WSW,254,7.0,16.0,49,0.00,,,0.11,Wunderground v.1.15,2013-11-18 16:36:00,
2013-11-18 11:41:00,50.1,31.2,29.89,SW,233,11.0,13.0,48,0.00,,,0.11,Wunderground v.1.15,2013-11-18 16:41:00,
2013-11-18 11:46:00,50.2,31.8,29.89,WSW,239,6.0,16.0,49,0.00,,,0.11,Wunderground v.1.15,2013-11-18 16:46:00,
2013-11-18 11:51:00,50.2,31.8,29.88,West,273,5.0,8.0,49,0.00,,,0.11,Wunderground v.1.15,2013-11-18 16:51:00,
2013-11-18 11:56:00,50.6,32.1,29.88,WNW,293,3.0,13.0,49,0.00,,,0.11,Wunderground v.1.15,2013-11-18 16:56:00,
2013-11-18 12:01:00,51.2,32.2,29.88,West,270,4.0,8.0,48,0.00,,,0.11,Wunderground v.1.15,2013-11-18 17:01:00,
2013-11-18 12:06:00,51.0,31.5,29.88,WNW,302,5.0,12.0,47,0.00,,,0.11,Wunderground v.1.15,2013-11-18 17:06:00,
2013-11-18 12:11:00,51.1,32.1,29.88,WNW,302,1.0,10.0,48,0.00,,,0.11,Wunderground v.1.15,2013-11-18 17:11:00,
2013-11-18 12:16:00,51.6,32.0,29.88,NW,307,3.0,11.0,47,0.00,,,0.11,Wunderground v.1.15,2013-11-18 17:16:00,
2013-11-18 12:21:00,51.6,32.0,29.88,West,263,11.0,11.0,47,0.00,,,0.11,Wunderground v.1.15,2013-11-18 17:21:00,
2013-11-18 12:26:00,51.2,31.1,29.88,WNW,302,8.0,17.0,46,0.00,,,0.11,Wunderground v.1.15,2013-11-18 17:26:00,
2013-11-18 12:31:00,51.3,30.7,29.88,West,273,9.0,16.0,45,0.00,,,0.11,Wunderground v.1.15,2013-11-18 17:31:00,
2013-11-18 12:36:00,51.3,30.1,29.88,NNW,334,6.0,16.0,44,0.00,,,0.11,Wunderground v.1.15,2013-11-18 17:36:00,
2013-11-18 12:41:00,51.4,30.7,29.88,SW,233,9.0,14.0,45,0.00,,,0.11,Wunderground v.1.15,2013-11-18 17:41:00,
2013-11-18 12:46:00,51.4,31.3,29.88,WSW,240,12.0,15.0,46,0.00,,,0.11,Wunderground v.1.15,2013-11-18 17:46:00,
2013-11-18 12:51:00,51.3,29.5,29.88,WSW,256,14.0,16.0,43,0.00,,,0.11,Wunderground v.1.15,2013-11-18 17:51:00,
2013-11-18 12:56:00,51.3,30.1,29.88,West,259,8.0,16.0,44,0.00,,,0.11,Wunderground v.1.15,2013-11-18 17:56:00,
2013-11-18 13:01:00,51.4,29.1,29.88,West,262,5.0,17.0,42,0.00,,,0.11,Wunderground v.1.15,2013-11-18 18:01:00,
2013-11-18 13:06:00,51.4,28.5,29.88,WNW,283,9.0,17.0,41,0.00,,,0.11,Wunderground v.1.15,2013-11-18 18:06:00,
2013-11-18 13:11:00,51.4,28.5,29.88,SSE,155,10.0,17.0,41,0.00,,,0.11,Wunderground v.1.15,2013-11-18 18:11:00,
2013-11-18 13:16:00,51.4,28.5,29.88,NNW,329,15.0,17.0,41,0.00,,,0.11,Wunderground v.1.15,2013-11-18 18:16:00,
2013-11-18 13:21:00,51.4,29.1,29.88,SW,229,8.0,12.0,42,0.00,,,0.11,Wunderground v.1.15,2013-11-18 18:21:00,
2013-11-18 13:26:00,51.7,28.7,29.88,West,267,4.0,12.0,41,0.00,,,0.11,Wunderground v.1.15,2013-11-18 18:26:00,
2013-11-18 13:31:00,52.1,30.3,29.89,SSW,213,6.0,9.0,43,0.00,,,0.11,Wunderground v.1.15,2013-11-18 18:31:00,
2013-11-18 13:36:00,51.6,29.2,29.88,WSW,244,8.0,22.0,42,0.00,,,0.11,Wunderground v.1.15,2013-11-18 18:36:00,
2013-11-18 13:41:00,51.4,29.1,29.89,WSW,243,6.0,9.0,42,0.00,,,0.11,Wunderground v.1.15,2013-11-18 18:41:00,
2013-11-18 13:46:00,51.6,29.8,29.88,West,264,3.0,15.0,43,0.00,,,0.11,Wunderground v.1.15,2013-11-18 18:46:00,
2013-11-18 13:51:00,51.6,29.8,29.88,West,277,5.0,8.0,43,0.00,,,0.11,Wunderground v.1.15,2013-11-18 18:51:00,
2013-11-18 13:56:00,51.6,29.2,29.88,WSW,241,6.0,18.0,42,0.00,,,0.11,Wunderground v.1.15,2013-11-18 18:56:00,
2013-11-18 14:01:00,51.4,29.6,29.88,SW,230,9.0,13.0,43,0.00,,,0.11,Wunderground v.1.15,2013-11-18 19:01:00,
2013-11-18 14:06:00,51.7,30.5,29.89,West,262,5.0,13.0,44,0.00,,,0.11,Wunderground v.1.15,2013-11-18 19:06:00,
2013-11-18 14:11:00,51.8,30.6,29.88,WNW,297,9.0,13.0,44,0.00,,,0.11,Wunderground v.1.15,2013-11-18 19:11:00,
2013-11-18 14:16:00,51.6,30.4,29.88,SSW,200,7.0,13.0,44,0.00,,,0.11,Wunderground v.1.15,2013-11-18 19:16:00,
2013-11-18 14:21:00,51.8,31.1,29.89,SW,214,10.0,14.0,45,0.00,,,0.11,Wunderground v.1.15,2013-11-18 19:21:00,
2013-11-18 14:26:00,51.8,31.1,29.88,SSE,152,1.0,14.0,45,0.00,,,0.11,Wunderground v.1.15,2013-11-18 19:26:00,
2013-11-18 14:31:00,51.8,30.6,29.89,SW,215,7.0,19.0,44,0.00,,,0.11,Wunderground v.1.15,2013-11-18 19:31:00,
2013-11-18 14:36:00,51.6,30.4,29.88,WSW,251,8.0,20.0,44,0.00,,,0.11,Wunderground v.1.15,2013-11-18 19:36:00,
2013-11-18 14:41:00,51.6,29.8,29.88,SSW,212,13.0,17.0,43,0.00,,,0.11,Wunderground v.1.15,2013-11-18 19:41:00,
2013-11-18 14:46:00,51.6,30.4,29.88,NW,312,6.0,18.0,44,0.00,,,0.11,Wunderground v.1.15,2013-11-18 19:46:00,
2013-11-18 14:51:00,51.4,30.2,29.89,South,188,2.0,12.0,44,0.00,,,0.11,Wunderground v.1.15,2013-11-18 19:51:00,
2013-11-18 14:56:00,51.3,30.7,29.88,SW,222,5.0,15.0,45,0.00,,,0.11,Wunderground v.1.15,2013-11-18 19:56:00,
2013-11-18 15:01:00,51.3,30.7,29.89,West,274,2.0,6.0,45,0.00,,,0.11,Wunderground v.1.15,2013-11-18 20:01:00,
2013-11-18 15:06:00,51.5,31.4,29.89,West,271,5.0,10.0,46,0.00,,,0.11,Wunderground v.1.15,2013-11-18 20:06:00,
2013-11-18 15:11:00,51.5,30.3,29.89,WSW,240,8.0,13.0,44,0.00,,,0.11,Wunderground v.1.15,2013-11-18 20:11:00,
2013-11-18 15:16:00,51.2,30.0,29.89,WSW,258,5.0,15.0,44,0.00,,,0.11,Wunderground v.1.15,2013-11-18 20:16:00,
2013-11-18 15:21:00,51.0,30.4,29.89,West,262,9.0,22.0,45,0.00,,,0.11,Wunderground v.1.15,2013-11-18 20:21:00,
2013-11-18 15:26:00,50.8,29.6,29.89,WNW,283,6.0,22.0,44,0.00,,,0.11,Wunderground v.1.15,2013-11-18 20:26:00,
2013-11-18 15:31:00,50.6,30.0,29.89,West,264,5.0,10.0,45,0.00,,,0.11,Wunderground v.1.15,2013-11-18 20:31:00,
2013-11-18 15:36:00,50.5,29.4,29.89,NW,306,10.0,21.0,44,0.00,,,0.11,Wunderground v.1.15,2013-11-18 20:36:00,
2013-11-18 15:41:00,50.5,30.5,29.89,SW,219,3.0,11.0,46,0.00,,,0.11,Wunderground v.1.15,2013-11-18 20:41:00,
2013-11-18 15:46:00,50.5,29.4,29.90,WNW,282,13.0,15.0,44,0.00,,,0.11,Wunderground v.1.15,2013-11-18 20:46:00,
2013-11-18 15:51:00,50.2,29.1,29.89,SW,219,3.0,16.0,44,0.00,,,0.11,Wunderground v.1.15,2013-11-18 20:51:00,
2013-11-18 15:56:00,50.1,30.1,29.89,SSW,205,6.0,18.0,46,0.00,,,0.11,Wunderground v.1.15,2013-11-18 20:56:00,
2013-11-18 16:02:00,50.0,30.0,29.89,NE,40,2.0,8.0,46,0.00,,,0.11,Wunderground v.1.15,2013-11-18 21:02:00,
2013-11-18 16:07:00,50.0,31.1,29.90,SSW,211,1.0,8.0,48,0.00,,,0.11,Wunderground v.1.15,2013-11-18 21:07:00,
2013-11-18 16:12:00,50.1,30.6,29.90,SW,230,17.0,17.0,47,0.00,,,0.11,Wunderground v.1.15,2013-11-18 21:12:00,
2013-11-18 16:17:00,49.7,29.7,29.90,NW,310,14.0,17.0,46,0.00,,,0.11,Wunderground v.1.15,2013-11-18 21:17:00,
2013-11-18 16:22:00,49.5,30.1,29.90,West,265,9.0,17.0,47,0.00,,,0.11,Wunderground v.1.15,2013-11-18 21:22:00,
2013-11-18 16:26:00,49.3,29.9,29.90,South,174,1.0,17.0,47,0.00,,,0.11,Wunderground v.1.15,2013-11-18 21:26:00,
2013-11-18 16:31:00,49.1,30.2,29.91,WNW,302,11.0,17.0,48,0.00,,,0.11,Wunderground v.1.15,2013-11-18 21:31:00,
2013-11-18 16:37:00,48.8,30.5,29.91,SW,216,6.0,20.0,49,0.00,,,0.11,Wunderground v.1.15,2013-11-18 21:37:00,
2013-11-18 16:42:00,48.6,30.8,29.91,WNW,283,4.0,11.0,50,0.00,,,0.11,Wunderground v.1.15,2013-11-18 21:42:00,
2013-11-18 16:47:00,48.3,30.5,29.91,NW,304,10.0,20.0,50,0.00,,,0.11,Wunderground v.1.15,2013-11-18 21:47:00,
2013-11-18 16:52:00,47.9,30.1,29.91,West,268,6.0,15.0,50,0.00,,,0.11,Wunderground v.1.15,2013-11-18 21:52:00,
2013-11-18 16:57:00,47.5,30.3,29.91,NW,326,3.0,16.0,51,0.00,,,0.11,Wunderground v.1.15,2013-11-18 21:57:00,
2013-11-18 17:02:00,47.1,30.4,29.92,NW,312,6.0,13.0,52,0.00,,,0.11,Wunderground v.1.15,2013-11-18 22:02:00,
2013-11-18 17:07:00,46.8,30.6,29.92,NNW,331,1.0,13.0,53,0.00,,,0.11,Wunderground v.1.15,2013-11-18 22:07:00,
2013-11-18 17:12:00,46.5,30.7,29.92,NW,305,5.0,5.0,54,0.00,,,0.11,Wunderground v.1.15,2013-11-18 22:12:00,
2013-11-18 17:17:00,46.3,30.5,29.92,SW,226,3.0,11.0,54,0.00,,,0.11,Wunderground v.1.15,2013-11-18 22:17:00,
2013-11-18 17:22:00,46.1,30.8,29.92,West,268,3.0,7.0,55,0.00,,,0.11,Wunderground v.1.15,2013-11-18 22:22:00,
2013-11-18 17:27:00,45.8,30.5,29.93,West,263,5.0,10.0,55,0.00,,,0.11,Wunderground v.1.15,2013-11-18 22:27:00,
2013-11-18 17:32:00,45.6,30.8,29.93,WSW,252,4.0,8.0,56,0.00,,,0.11,Wunderground v.1.15,2013-11-18 22:32:00,
2013-11-18 17:37:00,45.5,31.1,29.93,WNW,290,5.0,11.0,57,0.00,,,0.11,Wunderground v.1.15,2013-11-18 22:37:00,
2013-11-18 17:42:00,45.4,30.6,29.93,WSW,250,5.0,16.0,56,0.00,,,0.11,Wunderground v.1.15,2013-11-18 22:42:00,
2013-11-18 17:47:00,45.3,31.0,29.94,SSW,198,5.0,16.0,57,0.00,,,0.11,Wunderground v.1.15,2013-11-18 22:47:00,
2013-11-18 17:52:00,45.2,30.9,29.94,WSW,256,1.0,9.0,57,0.00,,,0.11,Wunderground v.1.15,2013-11-18 22:52:00,
2013-11-18 17:57:00,45.0,31.1,29.94,WNW,297,1.0,13.0,58,0.00,,,0.11,Wunderground v.1.15,2013-11-18 22:57:00,
2013-11-18 18:02:00,44.8,31.3,29.95,West,277,4.0,11.0,59,0.00,,,0.11,Wunderground v.1.15,2013-11-18 23:02:00,
2013-11-18 18:07:00,44.7,31.2,29.94,West,262,2.0,11.0,59,0.00,,,0.11,Wunderground v.1.15,2013-11-18 23:07:00,
2013-11-18 18:12:00,44.4,31.4,29.95,West,276,2.0,5.0,60,0.00,,,0.11,Wunderground v.1.15,2013-11-18 23:12:00,
2013-11-18 18:17:00,44.1,31.5,29.95,WSW,253,5.0,7.0,61,0.00,,,0.11,Wunderground v.1.15,2013-11-18 23:17:00,
2013-11-18 18:22:00,44.0,31.8,29.95,West,262,4.0,13.0,62,0.00,,,0.11,Wunderground v.1.15,2013-11-18 23:22:00,
2013-11-18 18:27:00,43.8,31.6,29.95,WSW,246,3.0,13.0,62,0.00,,,0.11,Wunderground v.1.15,2013-11-18 23:27:00,
2013-11-18 18:32:00,43.7,31.1,29.96,West,273,1.0,10.0,61,0.00,,,0.11,Wunderground v.1.15,2013-11-18 23:32:00,
2013-11-18 18:37:00,43.6,30.6,29.96,WNW,284,6.0,11.0,60,0.00,,,0.11,Wunderground v.1.15,2013-11-18 23:37:00,
2013-11-18 18:42:00,43.6,30.2,29.96,WNW,292,5.0,5.0,59,0.00,,,0.11,Wunderground v.1.15,2013-11-18 23:42:00,
2013-11-18 18:47:00,43.4,28.7,29.96,West,269,10.0,12.0,56,0.00,,,0.11,Wunderground v.1.15,2013-11-18 23:47:00,
2013-11-18 18:52:00,43.5,28.4,29.96,WNW,291,13.0,13.0,55,0.00,,,0.11,Wunderground v.1.15,2013-11-18 23:52:00,
2013-11-18 18:57:00,43.7,28.6,29.96,NW,308,9.0,16.0,55,0.00,,,0.11,Wunderground v.1.15,2013-11-18 23:57:00,
2013-11-18 19:02:00,43.6,27.6,29.96,NNE,33,6.0,13.0,53,0.00,,,0.11,Wunderground v.1.15,2013-11-19 00:02:00,
2013-11-18 19:07:00,43.6,27.1,29.97,NW,311,3.0,17.0,52,0.00,,,0.11,Wunderground v.1.15,2013-11-19 00:07:00,
2013-11-18 19:12:00,43.6,26.6,29.98,West,277,5.0,13.0,51,0.00,,,0.11,Wunderground v.1.15,2013-11-19 00:12:00,
2013-11-18 19:17:00,43.4,26.9,29.97,NW,316,8.0,13.0,52,0.00,,,0.11,Wunderground v.1.15,2013-11-19 00:17:00,
2013-11-18 19:22:00,43.2,26.7,29.97,WNW,283,1.0,14.0,52,0.00,,,0.11,Wunderground v.1.15,2013-11-19 00:22:00,
2013-11-18 19:27:00,43.0,27.0,29.98,WNW,300,5.0,14.0,53,0.00,,,0.11,Wunderground v.1.15,2013-11-19 00:27:00,
2013-11-18 19:32:00,42.8,26.8,29.97,WNW,286,3.0,8.0,53,0.00,,,0.11,Wunderground v.1.15,2013-11-19 00:32:00,
2013-11-18 19:37:00,42.6,27.1,29.97,SW,222,4.0,8.0,54,0.00,,,0.11,Wunderground v.1.15,2013-11-19 00:37:00,
2013-11-18 19:42:00,42.4,26.9,29.97,SSW,200,1.0,7.0,54,0.00,,,0.11,Wunderground v.1.15,2013-11-19 00:42:00,
2013-11-18 19:47:00,42.2,27.2,29.98,WNW,286,3.0,10.0,55,0.00,,,0.11,Wunderground v.1.15,2013-11-19 00:47:00,
2013-11-18 19:52:00,42.1,27.5,29.98,SE,145,4.0,10.0,56,0.00,,,0.11,Wunderground v.1.15,2013-11-19 00:52:00,
2013-11-18 19:57:00,42.1,27.5,29.98,NE,43,4.0,13.0,56,0.00,,,0.11,Wunderground v.1.15,2013-11-19 00:57:00,
2013-11-18 20:02:00,42.0,27.9,29.98,WSW,242,8.0,13.0,57,0.00,,,0.11,Wunderground v.1.15,2013-11-19 01:02:00,
2013-11-18 20:07:00,42.0,27.9,29.98,WNW,290,11.0,13.0,57,0.00,,,0.11,Wunderground v.1.15,2013-11-19 01:07:00,
2013-11-18 20:12:00,41.9,28.2,29.99,NW,325,3.0,8.0,58,0.00,,,0.11,Wunderground v.1.15,2013-11-19 01:12:00,
2013-11-18 20:17:00,41.8,28.1,29.99,WSW,257,8.0,16.0,58,0.00,,,0.11,Wunderground v.1.15,2013-11-19 01:17:00,
2013-11-18 20:22:00,41.8,28.5,29.99,SW,230,4.0,8.0,59,0.00,,,0.11,Wunderground v.1.15,2013-11-19 01:22:00,
2013-11-18 20:27:00,41.5,28.6,29.99,WSW,245,4.0,8.0,60,0.00,,,0.11,Wunderground v.1.15,2013-11-19 01:27:00,
2013-11-18 20:32:00,41.3,28.4,29.99,WSW,253,6.0,14.0,60,0.00,,,0.11,Wunderground v.1.15,2013-11-19 01:32:00,
2013-11-18 20:37:00,41.3,28.9,29.99,NNW,342,3.0,16.0,61,0.00,,,0.11,Wunderground v.1.15,2013-11-19 01:37:00,
2013-11-18 20:42:00,41.2,28.8,29.99,SSW,212,3.0,12.0,61,0.00,,,0.11,Wunderground v.1.15,2013-11-19 01:42:00,
2013-11-18 20:44:00,41.2,28.8,29.99,WNW,301,4.0,12.0,61,0.00,,,0.11,Wunderground v.1.15,2013-11-19 01:44:00,
2013-11-18 20:49:00,41.1,28.7,29.99,WSW,253,2.0,12.0,61,0.00,,,0.11,Wunderground v.1.15,2013-11-19 01:49:00,
2013-11-18 20:54:00,41.0,29.0,29.99,SSE,158,1.0,12.0,62,0.00,,,0.11,Wunderground v.1.15,2013-11-19 01:54:00,
2013-11-18 20:59:00,40.9,28.5,30.00,SW,219,5.0,16.0,61,0.00,,,0.11,Wunderground v.1.15,2013-11-19 01:59:00,
2013-11-18 21:04:00,40.9,28.5,29.99,NW,315,9.0,16.0,61,0.00,,,0.11,Wunderground v.1.15,2013-11-19 02:04:00,
2013-11-18 21:09:00,40.8,28.4,30.00,West,276,10.0,17.0,61,0.00,,,0.11,Wunderground v.1.15,2013-11-19 02:09:00,
2013-11-18 21:14:00,40.8,28.0,30.00,WNW,286,3.0,16.0,60,0.00,,,0.11,Wunderground v.1.15,2013-11-19 02:14:00,
2013-11-18 21:19:00,40.7,27.9,30.00,SW,219,4.0,17.0,60,0.00,,,0.11,Wunderground v.1.15,2013-11-19 02:19:00,
2013-11-18 21:24:00,40.6,27.8,30.00,SSW,208,2.0,15.0,60,0.00,,,0.11,Wunderground v.1.15,2013-11-19 02:24:00,
2013-11-18 21:29:00,40.4,28.0,30.01,WNW,298,7.0,17.0,61,0.00,,,0.11,Wunderground v.1.15,2013-11-19 02:29:00,
2013-11-18 21:34:00,40.4,27.6,30.00,SSE,155,2.0,17.0,60,0.00,,,0.11,Wunderground v.1.15,2013-11-19 02:34:00,
2013-11-18 21:39:00,40.2,27.8,30.00,NNW,338,5.0,17.0,61,0.00,,,0.11,Wunderground v.1.15,2013-11-19 02:39:00,
2013-11-18 21:44:00,40.0,27.6,30.01,South,172,2.0,11.0,61,0.00,,,0.11,Wunderground v.1.15,2013-11-19 02:44:00,
2013-11-18 21:49:00,39.9,27.5,30.01,WNW,295,2.0,14.0,61,0.00,,,0.11,Wunderground v.1.15,2013-11-19 02:49:00,
2013-11-18 21:54:00,39.8,27.4,30.01,South,169,4.0,16.0,61,0.00,,,0.11,Wunderground v.1.15,2013-11-19 02:54:00,
2013-11-18 21:59:00,39.7,27.3,30.01,WSW,240,12.0,16.0,61,0.00,,,0.11,Wunderground v.1.15,2013-11-19 02:59:00,
2013-11-18 22:04:00,39.6,27.2,30.01,WSW,238,2.0,11.0,61,0.00,,,0.11,Wunderground v.1.15,2013-11-19 03:04:00,
2013-11-18 22:09:00,39.5,27.5,30.01,WNW,296,4.0,11.0,62,0.00,,,0.11,Wunderground v.1.15,2013-11-19 03:09:00,
2013-11-18 22:14:00,39.3,27.4,30.01,West,266,11.0,11.0,62,0.00,,,0.11,Wunderground v.1.15,2013-11-19 03:14:00,
2013-11-18 22:19:00,39.1,27.6,30.01,West,276,2.0,11.0,63,0.00,,,0.11,Wunderground v.1.15,2013-11-19 03:19:00,
2013-11-18 22:24:00,39.0,27.8,30.02,WNW,293,4.0,12.0,64,0.00,,,0.11,Wunderground v.1.15,2013-11-19 03:24:00,
2013-11-18 22:29:00,38.9,28.1,30.01,WNW,297,5.0,12.0,65,0.00,,,0.11,Wunderground v.1.15,2013-11-19 03:29:00,
2013-11-18 22:34:00,38.9,28.1,30.02,West,266,3.0,13.0,65,0.00,,,0.11,Wunderground v.1.15,2013-11-19 03:34:00,
2013-11-18 22:39:00,38.8,28.0,30.02,WSW,248,3.0,13.0,65,0.00,,,0.11,Wunderground v.1.15,2013-11-19 03:39:00,
2013-11-18 22:44:00,38.6,28.2,30.02,NW,304,4.0,10.0,66,0.00,,,0.11,Wunderground v.1.15,2013-11-19 03:44:00,
2013-11-18 22:49:00,38.5,28.5,30.02,WSW,250,8.0,11.0,67,0.00,,,0.11,Wunderground v.1.15,2013-11-19 03:49:00,
2013-11-18 22:54:00,38.5,28.5,30.02,WNW,300,4.0,10.0,67,0.00,,,0.11,Wunderground v.1.15,2013-11-19 03:54:00,
2013-11-18 22:59:00,38.5,28.5,30.02,SW,219,4.0,10.0,67,0.00,,,0.11,Wunderground v.1.15,2013-11-19 03:59:00,
2013-11-18 23:04:00,38.3,28.7,30.02,NW,319,2.0,11.0,68,0.00,,,0.11,Wunderground v.1.15,2013-11-19 04:04:00,
2013-11-18 23:07:00,38.2,28.6,30.02,West,259,8.0,11.0,68,0.00,,,0.11,Wunderground v.1.15,2013-11-19 04:07:00,
2013-11-18 23:12:00,38.1,28.5,30.02,NW,309,3.0,6.0,68,0.00,,,0.11,Wunderground v.1.15,2013-11-19 04:12:00,
2013-11-18 23:17:00,38.1,28.1,30.02,NW,314,4.0,13.0,67,0.00,,,0.11,Wunderground v.1.15,2013-11-19 04:17:00,
2013-11-18 23:22:00,38.1,28.5,30.02,WNW,287,6.0,9.0,68,0.00,,,0.11,Wunderground v.1.15,2013-11-19 04:22:00,
2013-11-18 23:27:00,38.1,28.5,30.02,WNW,290,6.0,10.0,68,0.00,,,0.11,Wunderground v.1.15,2013-11-19 04:27:00,
2013-11-18 23:32:00,38.0,28.4,30.02,NW,304,5.0,10.0,68,0.00,,,0.11,Wunderground v.1.15,2013-11-19 04:32:00,
2013-11-18 23:37:00,37.9,28.3,30.03,WNW,292,3.0,11.0,68,0.00,,,0.11,Wunderground v.1.15,2013-11-19 04:37:00,
2013-11-18 23:42:00,37.9,28.3,30.02,NW,305,6.0,7.0,68,0.00,,,0.11,Wunderground v.1.15,2013-11-19 04:42:00,
2013-11-18 23:47:00,37.7,28.4,30.03,WNW,284,1.0,9.0,69,0.00,,,0.11,Wunderground v.1.15,2013-11-19 04:47:00,
2013-11-18 23:52:00,37.5,28.2,30.02,SW,232,0.0,4.0,69,0.00,,,0.11,Wunderground v.1.15,2013-11-19 04:52:00,
2013-11-18 23:57:00,37.3,28.4,30.03,WNW,285,5.0,9.0,70,0.00,,,0.11,Wunderground v.1.15,2013-11-19 04:57:00,